sensor_id;sensor_type;location;lat;lon;timestamp;P1;durP1;ratioP1;P2;durP2;ratioP2
52724;SDS011;38621;52.830;6.914;2022-08-30T00:01:05;4.40;;;2.80;;
52724;SDS011;38621;52.830;6.914;2022-08-30T00:03:43;3.75;;;2.35;;
52724;SDS011;38621;52.830;6.914;2022-08-30T00:06:10;3.50;;;2.50;;
52724;SDS011;38621;52.830;6.914;2022-08-30T00:08:39;4.05;;;2.90;;
52724;SDS011;38621;52.830;6.914;2022-08-30T00:11:06;3.20;;;2.47;;
52724;SDS011;38621;52.830;6.914;2022-08-30T00:13:34;3.60;;;2.40;;
52724;SDS011;38621;52.830;6.914;2022-08-30T00:16:01;3.92;;;2.50;;
52724;SDS011;38621;52.830;6.914;2022-08-30T00:18:27;3.60;;;2.80;;
52724;SDS011;38621;52.830;6.914;2022-08-30T00:20:53;3.58;;;2.35;;
52724;SDS011;38621;52.830;6.914;2022-08-30T00:23:20;3.30;;;2.50;;
52724;SDS011;38621;52.830;6.914;2022-08-30T00:25:46;3.88;;;2.55;;
52724;SDS011;38621;52.830;6.914;2022-08-30T00:28:12;3.97;;;2.63;;
52724;SDS011;38621;52.830;6.914;2022-08-30T00:30:39;3.95;;;2.50;;
52724;SDS011;38621;52.830;6.914;2022-08-30T00:33:05;3.30;;;2.78;;
52724;SDS011;38621;52.830;6.914;2022-08-30T00:35:31;3.38;;;2.58;;
52724;SDS011;38621;52.830;6.914;2022-08-30T00:37:57;3.70;;;2.50;;
52724;SDS011;38621;52.830;6.914;2022-08-30T00:40:24;4.97;;;3.20;;
52724;SDS011;38621;52.830;6.914;2022-08-30T00:42:50;5.63;;;2.60;;
52724;SDS011;38621;52.830;6.914;2022-08-30T00:45:20;3.53;;;2.53;;
52724;SDS011;38621;52.830;6.914;2022-08-30T00:47:49;4.18;;;2.28;;
52724;SDS011;38621;52.830;6.914;2022-08-30T00:50:16;4.45;;;2.72;;
52724;SDS011;38621;52.830;6.914;2022-08-30T00:52:45;4.22;;;2.80;;
52724;SDS011;38621;52.830;6.914;2022-08-30T00:55:13;3.70;;;2.33;;
52724;SDS011;38621;52.830;6.914;2022-08-30T00:57:42;4.43;;;2.65;;
52724;SDS011;38621;52.830;6.914;2022-08-30T01:00:10;3.45;;;2.33;;
52724;SDS011;38621;52.830;6.914;2022-08-30T01:02:37;3.05;;;2.30;;
52724;SDS011;38621;52.830;6.914;2022-08-30T01:05:03;3.78;;;2.70;;
52724;SDS011;38621;52.830;6.914;2022-08-30T01:07:31;3.15;;;2.83;;
52724;SDS011;38621;52.830;6.914;2022-08-30T01:09:59;4.00;;;2.53;;
52724;SDS011;38621;52.830;6.914;2022-08-30T01:12:26;3.38;;;2.50;;
52724;SDS011;38621;52.830;6.914;2022-08-30T01:14:54;3.80;;;2.63;;
52724;SDS011;38621;52.830;6.914;2022-08-30T01:17:20;3.70;;;2.35;;
52724;SDS011;38621;52.830;6.914;2022-08-30T01:19:52;3.60;;;2.63;;
52724;SDS011;38621;52.830;6.914;2022-08-30T01:22:32;3.90;;;2.55;;
52724;SDS011;38621;52.830;6.914;2022-08-30T01:25:02;3.28;;;2.45;;
52724;SDS011;38621;52.830;6.914;2022-08-30T01:27:30;3.75;;;2.88;;
52724;SDS011;38621;52.830;6.914;2022-08-30T01:29:58;4.72;;;2.90;;
52724;SDS011;38621;52.830;6.914;2022-08-30T01:32:26;4.07;;;2.70;;
52724;SDS011;38621;52.830;6.914;2022-08-30T01:34:53;4.25;;;2.90;;
52724;SDS011;38621;52.830;6.914;2022-08-30T01:37:28;3.45;;;2.67;;
52724;SDS011;38621;52.830;6.914;2022-08-30T01:39:56;3.80;;;2.75;;
52724;SDS011;38621;52.830;6.914;2022-08-30T01:42:23;4.18;;;2.67;;
52724;SDS011;38621;52.830;6.914;2022-08-30T01:44:48;3.45;;;2.95;;
52724;SDS011;38621;52.830;6.914;2022-08-30T01:47:15;2.88;;;2.22;;
52724;SDS011;38621;52.830;6.914;2022-08-30T01:49:42;3.22;;;2.80;;
52724;SDS011;38621;52.830;6.914;2022-08-30T01:52:10;4.80;;;2.80;;
52724;SDS011;38621;52.830;6.914;2022-08-30T01:54:36;3.55;;;2.53;;
52724;SDS011;38621;52.830;6.914;2022-08-30T01:57:03;3.70;;;2.80;;
52724;SDS011;38621;52.830;6.914;2022-08-30T01:59:31;3.60;;;2.60;;
52724;SDS011;38621;52.830;6.914;2022-08-30T02:01:57;3.78;;;2.80;;
52724;SDS011;38621;52.830;6.914;2022-08-30T02:04:22;4.32;;;3.10;;
52724;SDS011;38621;52.830;6.914;2022-08-30T02:06:50;3.63;;;2.83;;
52724;SDS011;38621;52.830;6.914;2022-08-30T02:09:17;3.80;;;2.80;;
52724;SDS011;38621;52.830;6.914;2022-08-30T02:11:43;4.03;;;3.25;;
52724;SDS011;38621;52.830;6.914;2022-08-30T02:14:09;3.35;;;2.78;;
52724;SDS011;38621;52.830;6.914;2022-08-30T02:16:35;3.30;;;2.40;;
52724;SDS011;38621;52.830;6.914;2022-08-30T02:19:01;3.53;;;2.70;;
52724;SDS011;38621;52.830;6.914;2022-08-30T02:21:27;3.70;;;2.83;;
52724;SDS011;38621;52.830;6.914;2022-08-30T02:23:54;3.30;;;2.90;;
52724;SDS011;38621;52.830;6.914;2022-08-30T02:26:20;3.08;;;2.42;;
52724;SDS011;38621;52.830;6.914;2022-08-30T02:28:46;3.63;;;2.85;;
52724;SDS011;38621;52.830;6.914;2022-08-30T02:31:13;3.53;;;2.50;;
52724;SDS011;38621;52.830;6.914;2022-08-30T02:33:38;4.88;;;3.40;;
52724;SDS011;38621;52.830;6.914;2022-08-30T02:36:05;4.03;;;2.95;;
52724;SDS011;38621;52.830;6.914;2022-08-30T02:38:31;3.65;;;2.90;;
52724;SDS011;38621;52.830;6.914;2022-08-30T02:40:57;6.00;;;3.13;;
52724;SDS011;38621;52.830;6.914;2022-08-30T02:43:23;3.45;;;2.80;;
52724;SDS011;38621;52.830;6.914;2022-08-30T02:45:51;4.00;;;2.78;;
52724;SDS011;38621;52.830;6.914;2022-08-30T02:48:17;3.88;;;2.63;;
52724;SDS011;38621;52.830;6.914;2022-08-30T02:50:44;3.38;;;2.83;;
52724;SDS011;38621;52.830;6.914;2022-08-30T02:53:11;3.90;;;3.10;;
52724;SDS011;38621;52.830;6.914;2022-08-30T02:55:37;4.03;;;3.03;;
52724;SDS011;38621;52.830;6.914;2022-08-30T02:58:03;3.78;;;2.72;;
52724;SDS011;38621;52.830;6.914;2022-08-30T03:00:29;4.40;;;3.22;;
52724;SDS011;38621;52.830;6.914;2022-08-30T03:02:55;3.90;;;3.17;;
52724;SDS011;38621;52.830;6.914;2022-08-30T03:05:21;4.35;;;3.05;;
52724;SDS011;38621;52.830;6.914;2022-08-30T03:07:47;4.28;;;3.35;;
52724;SDS011;38621;52.830;6.914;2022-08-30T03:10:13;5.57;;;3.33;;
52724;SDS011;38621;52.830;6.914;2022-08-30T03:12:40;4.57;;;3.53;;
52724;SDS011;38621;52.830;6.914;2022-08-30T03:15:07;4.10;;;3.10;;
52724;SDS011;38621;52.830;6.914;2022-08-30T03:17:39;4.70;;;3.42;;
52724;SDS011;38621;52.830;6.914;2022-08-30T03:20:05;4.13;;;3.20;;
52724;SDS011;38621;52.830;6.914;2022-08-30T03:22:32;4.55;;;3.30;;
52724;SDS011;38621;52.830;6.914;2022-08-30T03:24:57;4.57;;;3.00;;
52724;SDS011;38621;52.830;6.914;2022-08-30T03:27:25;3.72;;;2.95;;
52724;SDS011;38621;52.830;6.914;2022-08-30T03:29:52;3.55;;;2.90;;
52724;SDS011;38621;52.830;6.914;2022-08-30T03:32:18;3.53;;;3.03;;
52724;SDS011;38621;52.830;6.914;2022-08-30T03:34:44;4.93;;;3.47;;
52724;SDS011;38621;52.830;6.914;2022-08-30T03:37:10;3.85;;;3.33;;
52724;SDS011;38621;52.830;6.914;2022-08-30T03:39:35;4.38;;;3.20;;
52724;SDS011;38621;52.830;6.914;2022-08-30T03:42:01;3.95;;;3.10;;
52724;SDS011;38621;52.830;6.914;2022-08-30T03:44:27;3.95;;;3.42;;
52724;SDS011;38621;52.830;6.914;2022-08-30T03:46:53;4.95;;;3.30;;
52724;SDS011;38621;52.830;6.914;2022-08-30T03:49:18;5.00;;;3.50;;
52724;SDS011;38621;52.830;6.914;2022-08-30T03:51:45;4.68;;;3.40;;
52724;SDS011;38621;52.830;6.914;2022-08-30T03:54:11;4.85;;;3.50;;
52724;SDS011;38621;52.830;6.914;2022-08-30T03:56:37;5.10;;;3.50;;
52724;SDS011;38621;52.830;6.914;2022-08-30T03:59:03;5.35;;;3.75;;
52724;SDS011;38621;52.830;6.914;2022-08-30T04:01:29;4.07;;;3.40;;
52724;SDS011;38621;52.830;6.914;2022-08-30T04:03:55;4.38;;;3.53;;
52724;SDS011;38621;52.830;6.914;2022-08-30T04:06:21;4.72;;;3.63;;
52724;SDS011;38621;52.830;6.914;2022-08-30T04:08:47;6.07;;;3.67;;
52724;SDS011;38621;52.830;6.914;2022-08-30T04:11:13;4.47;;;3.70;;
52724;SDS011;38621;52.830;6.914;2022-08-30T04:13:40;4.40;;;3.20;;
52724;SDS011;38621;52.830;6.914;2022-08-30T04:16:06;4.18;;;3.38;;
52724;SDS011;38621;52.830;6.914;2022-08-30T04:18:32;4.22;;;3.42;;
52724;SDS011;38621;52.830;6.914;2022-08-30T04:20:58;6.47;;;3.83;;
52724;SDS011;38621;52.830;6.914;2022-08-30T04:23:24;4.50;;;3.53;;
52724;SDS011;38621;52.830;6.914;2022-08-30T04:25:50;4.68;;;3.58;;
52724;SDS011;38621;52.830;6.914;2022-08-30T04:28:15;5.53;;;3.60;;
52724;SDS011;38621;52.830;6.914;2022-08-30T04:30:42;4.60;;;3.63;;
52724;SDS011;38621;52.830;6.914;2022-08-30T04:33:09;4.68;;;3.30;;
52724;SDS011;38621;52.830;6.914;2022-08-30T04:35:38;5.20;;;3.70;;
52724;SDS011;38621;52.830;6.914;2022-08-30T04:38:05;5.10;;;3.90;;
52724;SDS011;38621;52.830;6.914;2022-08-30T04:40:31;5.40;;;4.10;;
52724;SDS011;38621;52.830;6.914;2022-08-30T04:42:57;4.70;;;3.90;;
52724;SDS011;38621;52.830;6.914;2022-08-30T04:45:24;4.90;;;4.00;;
52724;SDS011;38621;52.830;6.914;2022-08-30T04:47:50;4.88;;;4.38;;
52724;SDS011;38621;52.830;6.914;2022-08-30T04:50:16;4.82;;;3.83;;
52724;SDS011;38621;52.830;6.914;2022-08-30T04:52:43;8.63;;;4.20;;
52724;SDS011;38621;52.830;6.914;2022-08-30T04:55:10;4.60;;;3.70;;
52724;SDS011;38621;52.830;6.914;2022-08-30T04:57:37;5.13;;;3.90;;
52724;SDS011;38621;52.830;6.914;2022-08-30T05:00:07;5.18;;;4.57;;
52724;SDS011;38621;52.830;6.914;2022-08-30T05:02:37;5.25;;;4.10;;
52724;SDS011;38621;52.830;6.914;2022-08-30T05:05:03;6.28;;;3.80;;
52724;SDS011;38621;52.830;6.914;2022-08-30T05:07:48;6.05;;;3.88;;
52724;SDS011;38621;52.830;6.914;2022-08-30T05:10:13;4.50;;;4.00;;
52724;SDS011;38621;52.830;6.914;2022-08-30T05:12:39;4.70;;;3.70;;
52724;SDS011;38621;52.830;6.914;2022-08-30T05:15:05;5.40;;;3.95;;
52724;SDS011;38621;52.830;6.914;2022-08-30T05:17:32;4.85;;;4.15;;
52724;SDS011;38621;52.830;6.914;2022-08-30T05:19:59;5.07;;;3.70;;
52724;SDS011;38621;52.830;6.914;2022-08-30T05:22:26;4.65;;;3.72;;
52724;SDS011;38621;52.830;6.914;2022-08-30T05:24:52;4.20;;;3.75;;
52724;SDS011;38621;52.830;6.914;2022-08-30T05:27:17;4.22;;;3.83;;
52724;SDS011;38621;52.830;6.914;2022-08-30T05:29:43;4.47;;;3.53;;
52724;SDS011;38621;52.830;6.914;2022-08-30T05:32:09;5.05;;;3.67;;
52724;SDS011;38621;52.830;6.914;2022-08-30T05:34:34;4.70;;;3.50;;
52724;SDS011;38621;52.830;6.914;2022-08-30T05:37:00;4.28;;;3.58;;
52724;SDS011;38621;52.830;6.914;2022-08-30T05:39:27;5.03;;;3.85;;
52724;SDS011;38621;52.830;6.914;2022-08-30T05:41:57;4.82;;;3.65;;
52724;SDS011;38621;52.830;6.914;2022-08-30T05:44:24;4.78;;;3.33;;
52724;SDS011;38621;52.830;6.914;2022-08-30T05:46:49;5.25;;;4.03;;
52724;SDS011;38621;52.830;6.914;2022-08-30T05:49:15;5.47;;;3.42;;
52724;SDS011;38621;52.830;6.914;2022-08-30T05:51:41;5.20;;;3.50;;
52724;SDS011;38621;52.830;6.914;2022-08-30T05:54:07;5.15;;;3.70;;
52724;SDS011;38621;52.830;6.914;2022-08-30T05:56:34;5.18;;;3.72;;
52724;SDS011;38621;52.830;6.914;2022-08-30T05:59:02;4.07;;;3.42;;
52724;SDS011;38621;52.830;6.914;2022-08-30T06:01:34;6.47;;;3.75;;
52724;SDS011;38621;52.830;6.914;2022-08-30T06:04:03;4.30;;;3.38;;
52724;SDS011;38621;52.830;6.914;2022-08-30T06:06:30;4.93;;;3.80;;
52724;SDS011;38621;52.830;6.914;2022-08-30T06:08:57;4.75;;;3.65;;
52724;SDS011;38621;52.830;6.914;2022-08-30T06:11:23;5.40;;;4.03;;
52724;SDS011;38621;52.830;6.914;2022-08-30T06:13:50;5.07;;;3.65;;
52724;SDS011;38621;52.830;6.914;2022-08-30T06:16:18;5.30;;;3.35;;
52724;SDS011;38621;52.830;6.914;2022-08-30T06:18:45;5.03;;;3.47;;
52724;SDS011;38621;52.830;6.914;2022-08-30T06:21:18;5.60;;;3.40;;
52724;SDS011;38621;52.830;6.914;2022-08-30T06:23:45;4.07;;;3.00;;
52724;SDS011;38621;52.830;6.914;2022-08-30T06:26:11;5.53;;;3.42;;
52724;SDS011;38621;52.830;6.914;2022-08-30T06:28:37;5.07;;;3.28;;
52724;SDS011;38621;52.830;6.914;2022-08-30T06:31:07;4.88;;;3.33;;
52724;SDS011;38621;52.830;6.914;2022-08-30T06:33:34;4.05;;;3.30;;
52724;SDS011;38621;52.830;6.914;2022-08-30T06:36:01;4.00;;;3.25;;
52724;SDS011;38621;52.830;6.914;2022-08-30T06:38:30;4.82;;;3.30;;
52724;SDS011;38621;52.830;6.914;2022-08-30T06:40:56;3.55;;;3.13;;
52724;SDS011;38621;52.830;6.914;2022-08-30T06:43:22;4.60;;;2.72;;
52724;SDS011;38621;52.830;6.914;2022-08-30T06:45:48;3.50;;;2.47;;
52724;SDS011;38621;52.830;6.914;2022-08-30T06:48:14;4.63;;;2.53;;
52724;SDS011;38621;52.830;6.914;2022-08-30T06:50:39;3.47;;;2.30;;
52724;SDS011;38621;52.830;6.914;2022-08-30T06:53:08;3.00;;;2.50;;
52724;SDS011;38621;52.830;6.914;2022-08-30T06:55:34;3.08;;;2.10;;
52724;SDS011;38621;52.830;6.914;2022-08-30T06:58:01;3.55;;;2.22;;
52724;SDS011;38621;52.830;6.914;2022-08-30T07:00:27;2.80;;;1.92;;
52724;SDS011;38621;52.830;6.914;2022-08-30T07:02:53;3.30;;;1.90;;
52724;SDS011;38621;52.830;6.914;2022-08-30T07:05:19;4.05;;;2.03;;
52724;SDS011;38621;52.830;6.914;2022-08-30T07:07:48;2.58;;;1.60;;
52724;SDS011;38621;52.830;6.914;2022-08-30T07:10:14;2.67;;;1.50;;
52724;SDS011;38621;52.830;6.914;2022-08-30T07:12:40;4.47;;;1.77;;
52724;SDS011;38621;52.830;6.914;2022-08-30T07:15:06;3.13;;;1.50;;
52724;SDS011;38621;52.830;6.914;2022-08-30T07:17:33;2.70;;;1.50;;
52724;SDS011;38621;52.830;6.914;2022-08-30T07:20:17;2.30;;;1.60;;
52724;SDS011;38621;52.830;6.914;2022-08-30T07:22:45;3.47;;;1.42;;
52724;SDS011;38621;52.830;6.914;2022-08-30T07:25:11;3.42;;;1.77;;
52724;SDS011;38621;52.830;6.914;2022-08-30T07:27:38;4.20;;;1.50;;
52724;SDS011;38621;52.830;6.914;2022-08-30T07:30:04;2.22;;;1.40;;
52724;SDS011;38621;52.830;6.914;2022-08-30T07:32:31;3.50;;;1.10;;
52724;SDS011;38621;52.830;6.914;2022-08-30T07:34:57;2.40;;;1.30;;
52724;SDS011;38621;52.830;6.914;2022-08-30T07:37:23;2.95;;;1.40;;
52724;SDS011;38621;52.830;6.914;2022-08-30T07:39:49;3.25;;;1.20;;
52724;SDS011;38621;52.830;6.914;2022-08-30T07:42:15;1.92;;;1.20;;
52724;SDS011;38621;52.830;6.914;2022-08-30T07:44:41;2.45;;;1.20;;
52724;SDS011;38621;52.830;6.914;2022-08-30T07:47:07;2.15;;;1.00;;
52724;SDS011;38621;52.830;6.914;2022-08-30T07:49:33;1.70;;;1.00;;
52724;SDS011;38621;52.830;6.914;2022-08-30T07:52:00;1.88;;;1.00;;
52724;SDS011;38621;52.830;6.914;2022-08-30T07:54:26;3.08;;;1.10;;
52724;SDS011;38621;52.830;6.914;2022-08-30T07:56:52;2.30;;;1.00;;
52724;SDS011;38621;52.830;6.914;2022-08-30T07:59:20;2.13;;;1.10;;
52724;SDS011;38621;52.830;6.914;2022-08-30T08:01:46;3.13;;;1.73;;
52724;SDS011;38621;52.830;6.914;2022-08-30T08:04:12;3.75;;;1.30;;
52724;SDS011;38621;52.830;6.914;2022-08-30T08:06:38;3.10;;;1.08;;
52724;SDS011;38621;52.830;6.914;2022-08-30T08:09:04;3.35;;;1.08;;
52724;SDS011;38621;52.830;6.914;2022-08-30T08:11:31;2.72;;;1.02;;
52724;SDS011;38621;52.830;6.914;2022-08-30T08:13:58;2.53;;;1.20;;
52724;SDS011;38621;52.830;6.914;2022-08-30T08:16:25;2.33;;;1.10;;
52724;SDS011;38621;52.830;6.914;2022-08-30T08:18:53;1.83;;;0.95;;
52724;SDS011;38621;52.830;6.914;2022-08-30T08:21:20;3.05;;;1.13;;
52724;SDS011;38621;52.830;6.914;2022-08-30T08:23:46;2.45;;;0.90;;
52724;SDS011;38621;52.830;6.914;2022-08-30T08:26:12;3.15;;;1.02;;
52724;SDS011;38621;52.830;6.914;2022-08-30T08:28:38;2.60;;;0.80;;
52724;SDS011;38621;52.830;6.914;2022-08-30T08:31:12;3.13;;;0.80;;
52724;SDS011;38621;52.830;6.914;2022-08-30T08:33:38;1.85;;;0.90;;
52724;SDS011;38621;52.830;6.914;2022-08-30T08:36:04;2.17;;;0.88;;
52724;SDS011;38621;52.830;6.914;2022-08-30T08:38:30;2.60;;;1.00;;
52724;SDS011;38621;52.830;6.914;2022-08-30T08:41:04;2.42;;;0.90;;
52724;SDS011;38621;52.830;6.914;2022-08-30T08:43:50;1.75;;;0.95;;
52724;SDS011;38621;52.830;6.914;2022-08-30T08:46:21;1.90;;;0.70;;
52724;SDS011;38621;52.830;6.914;2022-08-30T08:49:00;3.55;;;0.90;;
52724;SDS011;38621;52.830;6.914;2022-08-30T08:51:33;2.95;;;0.90;;
52724;SDS011;38621;52.830;6.914;2022-08-30T08:56:51;2.85;;;0.80;;
52724;SDS011;38621;52.830;6.914;2022-08-30T08:59:18;3.90;;;0.80;;
52724;SDS011;38621;52.830;6.914;2022-08-30T09:01:44;1.88;;;0.70;;
52724;SDS011;38621;52.830;6.914;2022-08-30T09:04:13;2.22;;;0.60;;
52724;SDS011;38621;52.830;6.914;2022-08-30T09:09:20;2.40;;;0.90;;
52724;SDS011;38621;52.830;6.914;2022-08-30T09:11:53;1.73;;;0.70;;
52724;SDS011;38621;52.830;6.914;2022-08-30T09:14:24;2.58;;;0.90;;
52724;SDS011;38621;52.830;6.914;2022-08-30T09:22:21;1.30;;;0.70;;
52724;SDS011;38621;52.830;6.914;2022-08-30T09:24:54;1.17;;;0.70;;
52724;SDS011;38621;52.830;6.914;2022-08-30T09:27:29;1.83;;;0.90;;
52724;SDS011;38621;52.830;6.914;2022-08-30T09:29:59;1.63;;;0.75;;
52724;SDS011;38621;52.830;6.914;2022-08-30T09:32:31;1.38;;;0.70;;
52724;SDS011;38621;52.830;6.914;2022-08-30T09:35:12;1.25;;;0.75;;
52724;SDS011;38621;52.830;6.914;2022-08-30T09:38:07;1.92;;;0.65;;
52724;SDS011;38621;52.830;6.914;2022-08-30T09:40:39;2.75;;;0.80;;
52724;SDS011;38621;52.830;6.914;2022-08-30T09:53:36;1.73;;;0.70;;
52724;SDS011;38621;52.830;6.914;2022-08-30T09:56:22;2.85;;;0.73;;
52724;SDS011;38621;52.830;6.914;2022-08-30T10:05:11;1.50;;;0.60;;
52724;SDS011;38621;52.830;6.914;2022-08-30T10:13:05;1.95;;;0.75;;
52724;SDS011;38621;52.830;6.914;2022-08-30T10:15:51;1.27;;;0.77;;
52724;SDS011;38621;52.830;6.914;2022-08-30T10:18:20;1.40;;;0.73;;
52724;SDS011;38621;52.830;6.914;2022-08-30T10:23:34;1.67;;;0.70;;
52724;SDS011;38621;52.830;6.914;2022-08-30T10:28:50;2.28;;;0.70;;
52724;SDS011;38621;52.830;6.914;2022-08-30T10:31:24;2.47;;;0.70;;
52724;SDS011;38621;52.830;6.914;2022-08-30T10:33:56;1.50;;;0.60;;
52724;SDS011;38621;52.830;6.914;2022-08-30T10:36:28;1.55;;;0.77;;
52724;SDS011;38621;52.830;6.914;2022-08-30T10:38:57;2.78;;;0.88;;
52724;SDS011;38621;52.830;6.914;2022-08-30T10:44:07;2.13;;;0.60;;
52724;SDS011;38621;52.830;6.914;2022-08-30T10:49:31;2.17;;;0.63;;
52724;SDS011;38621;52.830;6.914;2022-08-30T10:52:16;1.40;;;0.50;;
52724;SDS011;38621;52.830;6.914;2022-08-30T10:57:38;1.33;;;0.60;;
52724;SDS011;38621;52.830;6.914;2022-08-30T11:00:06;2.15;;;0.75;;
52724;SDS011;38621;52.830;6.914;2022-08-30T11:02:52;1.38;;;0.63;;
52724;SDS011;38621;52.830;6.914;2022-08-30T11:05:57;2.03;;;0.55;;
52724;SDS011;38621;52.830;6.914;2022-08-30T11:08:57;1.63;;;0.60;;
52724;SDS011;38621;52.830;6.914;2022-08-30T11:14:56;4.60;;;0.80;;
52724;SDS011;38621;52.830;6.914;2022-08-30T11:17:25;1.70;;;0.80;;
52724;SDS011;38621;52.830;6.914;2022-08-30T11:19:56;2.03;;;0.80;;
52724;SDS011;38621;52.830;6.914;2022-08-30T11:22:33;1.50;;;0.55;;
52724;SDS011;38621;52.830;6.914;2022-08-30T11:33:05;2.03;;;0.68;;
52724;SDS011;38621;52.830;6.914;2022-08-30T11:35:54;2.00;;;0.50;;
52724;SDS011;38621;52.830;6.914;2022-08-30T11:51:43;2.17;;;0.55;;
52724;SDS011;38621;52.830;6.914;2022-08-30T11:57:18;2.80;;;0.65;;
52724;SDS011;38621;52.830;6.914;2022-08-30T12:02:49;1.80;;;0.70;;
52724;SDS011;38621;52.830;6.914;2022-08-30T12:08:04;1.20;;;0.50;;
52724;SDS011;38621;52.830;6.914;2022-08-30T12:10:36;1.48;;;0.60;;
52724;SDS011;38621;52.830;6.914;2022-08-30T12:16:02;1.65;;;0.60;;
52724;SDS011;38621;52.830;6.914;2022-08-30T12:18:52;1.45;;;0.70;;
52724;SDS011;38621;52.830;6.914;2022-08-30T12:26:37;1.88;;;0.50;;
52724;SDS011;38621;52.830;6.914;2022-08-30T12:31:40;1.23;;;0.63;;
52724;SDS011;38621;52.830;6.914;2022-08-30T12:34:26;2.05;;;0.85;;
52724;SDS011;38621;52.830;6.914;2022-08-30T12:36:55;1.50;;;0.65;;
52724;SDS011;38621;52.830;6.914;2022-08-30T12:42:18;2.00;;;0.70;;
52724;SDS011;38621;52.830;6.914;2022-08-30T12:44:46;1.80;;;0.60;;
52724;SDS011;38621;52.830;6.914;2022-08-30T12:47:16;1.15;;;0.50;;
52724;SDS011;38621;52.830;6.914;2022-08-30T12:49:49;1.30;;;0.60;;
52724;SDS011;38621;52.830;6.914;2022-08-30T12:52:27;1.13;;;0.50;;
52724;SDS011;38621;52.830;6.914;2022-08-30T12:55:32;1.10;;;0.50;;
52724;SDS011;38621;52.830;6.914;2022-08-30T13:00:30;1.52;;;0.52;;
52724;SDS011;38621;52.830;6.914;2022-08-30T13:03:00;3.72;;;0.60;;
52724;SDS011;38621;52.830;6.914;2022-08-30T13:05:46;1.20;;;0.55;;
52724;SDS011;38621;52.830;6.914;2022-08-30T13:08:15;1.60;;;0.50;;
52724;SDS011;38621;52.830;6.914;2022-08-30T13:11:02;1.25;;;0.68;;
52724;SDS011;38621;52.830;6.914;2022-08-30T13:18:48;1.70;;;0.70;;
52724;SDS011;38621;52.830;6.914;2022-08-30T13:21:33;1.98;;;0.70;;
52724;SDS011;38621;52.830;6.914;2022-08-30T13:24:00;2.00;;;0.60;;
52724;SDS011;38621;52.830;6.914;2022-08-30T13:26:30;0.80;;;0.50;;
52724;SDS011;38621;52.830;6.914;2022-08-30T13:28:59;2.08;;;0.52;;
52724;SDS011;38621;52.830;6.914;2022-08-30T13:31:27;1.42;;;0.77;;
52724;SDS011;38621;52.830;6.914;2022-08-30T13:33:54;2.10;;;0.60;;
52724;SDS011;38621;52.830;6.914;2022-08-30T13:36:21;0.93;;;0.50;;
52724;SDS011;38621;52.830;6.914;2022-08-30T13:38:53;1.05;;;0.55;;
52724;SDS011;38621;52.830;6.914;2022-08-30T13:41:19;2.33;;;0.73;;
52724;SDS011;38621;52.830;6.914;2022-08-30T13:43:45;2.05;;;0.40;;
52724;SDS011;38621;52.830;6.914;2022-08-30T13:46:11;2.15;;;0.75;;
52724;SDS011;38621;52.830;6.914;2022-08-30T13:48:39;2.45;;;0.60;;
52724;SDS011;38621;52.830;6.914;2022-08-30T13:51:04;1.40;;;0.60;;
52724;SDS011;38621;52.830;6.914;2022-08-30T13:53:30;1.60;;;0.65;;
52724;SDS011;38621;52.830;6.914;2022-08-30T13:55:56;2.15;;;0.60;;
52724;SDS011;38621;52.830;6.914;2022-08-30T13:58:22;1.90;;;0.68;;
52724;SDS011;38621;52.830;6.914;2022-08-30T14:00:48;1.38;;;0.50;;
52724;SDS011;38621;52.830;6.914;2022-08-30T14:03:14;1.52;;;0.70;;
52724;SDS011;38621;52.830;6.914;2022-08-30T14:05:40;0.85;;;0.50;;
52724;SDS011;38621;52.830;6.914;2022-08-30T14:08:08;1.20;;;0.60;;
52724;SDS011;38621;52.830;6.914;2022-08-30T14:10:34;1.35;;;0.50;;
52724;SDS011;38621;52.830;6.914;2022-08-30T14:13:01;1.30;;;0.60;;
52724;SDS011;38621;52.830;6.914;2022-08-30T14:15:26;1.70;;;0.70;;
52724;SDS011;38621;52.830;6.914;2022-08-30T14:17:52;1.38;;;0.68;;
52724;SDS011;38621;52.830;6.914;2022-08-30T14:20:18;1.40;;;0.70;;
52724;SDS011;38621;52.830;6.914;2022-08-30T14:22:44;2.10;;;0.73;;
52724;SDS011;38621;52.830;6.914;2022-08-30T14:25:10;2.45;;;0.60;;
52724;SDS011;38621;52.830;6.914;2022-08-30T14:27:36;1.25;;;0.52;;
52724;SDS011;38621;52.830;6.914;2022-08-30T14:30:03;0.98;;;0.50;;
52724;SDS011;38621;52.830;6.914;2022-08-30T14:32:29;1.40;;;0.70;;
52724;SDS011;38621;52.830;6.914;2022-08-30T14:34:55;1.65;;;0.60;;
52724;SDS011;38621;52.830;6.914;2022-08-30T14:37:21;1.48;;;0.70;;
52724;SDS011;38621;52.830;6.914;2022-08-30T14:39:47;1.98;;;0.80;;
52724;SDS011;38621;52.830;6.914;2022-08-30T14:42:13;1.88;;;0.60;;
52724;SDS011;38621;52.830;6.914;2022-08-30T14:44:39;1.10;;;0.60;;
52724;SDS011;38621;52.830;6.914;2022-08-30T14:47:05;1.67;;;0.60;;
52724;SDS011;38621;52.830;6.914;2022-08-30T14:49:31;1.55;;;0.60;;
52724;SDS011;38621;52.830;6.914;2022-08-30T14:51:57;1.48;;;0.70;;
52724;SDS011;38621;52.830;6.914;2022-08-30T14:54:24;1.33;;;0.60;;
52724;SDS011;38621;52.830;6.914;2022-08-30T14:56:51;1.65;;;0.60;;
52724;SDS011;38621;52.830;6.914;2022-08-30T14:59:17;1.88;;;0.70;;
52724;SDS011;38621;52.830;6.914;2022-08-30T15:01:43;1.60;;;0.75;;
52724;SDS011;38621;52.830;6.914;2022-08-30T15:04:10;1.52;;;0.70;;
52724;SDS011;38621;52.830;6.914;2022-08-30T15:06:37;1.40;;;0.73;;
52724;SDS011;38621;52.830;6.914;2022-08-30T15:09:06;1.48;;;0.63;;
52724;SDS011;38621;52.830;6.914;2022-08-30T15:11:33;1.58;;;0.70;;
52724;SDS011;38621;52.830;6.914;2022-08-30T15:13:59;1.10;;;0.50;;
52724;SDS011;38621;52.830;6.914;2022-08-30T15:16:26;1.08;;;0.63;;
52724;SDS011;38621;52.830;6.914;2022-08-30T15:18:55;1.38;;;0.70;;
52724;SDS011;38621;52.830;6.914;2022-08-30T15:21:25;1.40;;;0.70;;
52724;SDS011;38621;52.830;6.914;2022-08-30T15:23:52;1.70;;;0.60;;
52724;SDS011;38621;52.830;6.914;2022-08-30T15:26:18;1.17;;;0.60;;
52724;SDS011;38621;52.830;6.914;2022-08-30T15:28:45;1.20;;;0.60;;
52724;SDS011;38621;52.830;6.914;2022-08-30T15:31:10;1.08;;;0.60;;
52724;SDS011;38621;52.830;6.914;2022-08-30T15:33:36;1.65;;;0.70;;
52724;SDS011;38621;52.830;6.914;2022-08-30T15:36:03;1.15;;;0.60;;
52724;SDS011;38621;52.830;6.914;2022-08-30T15:38:30;2.13;;;0.82;;
52724;SDS011;38621;52.830;6.914;2022-08-30T15:40:56;2.05;;;0.70;;
52724;SDS011;38621;52.830;6.914;2022-08-30T15:43:27;1.48;;;0.70;;
52724;SDS011;38621;52.830;6.914;2022-08-30T15:45:53;3.00;;;1.58;;
52724;SDS011;38621;52.830;6.914;2022-08-30T15:48:19;0.77;;;0.45;;
52724;SDS011;38621;52.830;6.914;2022-08-30T15:50:46;1.40;;;0.75;;
52724;SDS011;38621;52.830;6.914;2022-08-30T15:53:21;1.40;;;0.70;;
52724;SDS011;38621;52.830;6.914;2022-08-30T15:55:46;2.00;;;0.60;;
52724;SDS011;38621;52.830;6.914;2022-08-30T15:58:12;1.20;;;0.60;;
52724;SDS011;38621;52.830;6.914;2022-08-30T16:00:38;1.35;;;0.60;;
52724;SDS011;38621;52.830;6.914;2022-08-30T16:03:04;1.52;;;0.80;;
52724;SDS011;38621;52.830;6.914;2022-08-30T16:05:30;1.42;;;0.70;;
52724;SDS011;38621;52.830;6.914;2022-08-30T16:07:56;1.65;;;0.60;;
52724;SDS011;38621;52.830;6.914;2022-08-30T16:10:22;2.92;;;0.80;;
52724;SDS011;38621;52.830;6.914;2022-08-30T16:12:48;1.35;;;0.60;;
52724;SDS011;38621;52.830;6.914;2022-08-30T16:15:13;1.08;;;0.50;;
52724;SDS011;38621;52.830;6.914;2022-08-30T16:17:39;1.85;;;0.63;;
52724;SDS011;38621;52.830;6.914;2022-08-30T16:20:05;1.65;;;0.60;;
52724;SDS011;38621;52.830;6.914;2022-08-30T16:22:33;1.27;;;0.60;;
52724;SDS011;38621;52.830;6.914;2022-08-30T16:24:59;1.25;;;0.50;;
52724;SDS011;38621;52.830;6.914;2022-08-30T16:27:24;1.67;;;0.52;;
52724;SDS011;38621;52.830;6.914;2022-08-30T16:29:50;3.85;;;0.60;;
52724;SDS011;38621;52.830;6.914;2022-08-30T16:32:16;1.08;;;0.60;;
52724;SDS011;38621;52.830;6.914;2022-08-30T16:34:42;1.52;;;0.55;;
52724;SDS011;38621;52.830;6.914;2022-08-30T16:37:07;1.10;;;0.55;;